createdAt,value
2023-11-18T00:01:59.218Z,35.75
2023-11-18T00:04:26.243Z,36.85
2023-11-18T00:06:53.702Z,31.67
2023-11-18T00:09:21.139Z,33.38
2023-11-18T00:11:47.634Z,27.70
2023-11-18T00:14:14.707Z,29.25
2023-11-18T00:16:41.374Z,30.63
2023-11-18T00:19:10.321Z,31.80
2023-11-18T00:21:37.441Z,30.92
2023-11-18T00:24:04.443Z,28.80
2023-11-18T00:26:30.974Z,32.05
2023-11-18T00:28:57.475Z,27.48
2023-11-18T00:31:24.272Z,30.08
2023-11-18T00:33:50.863Z,31.27
2023-11-18T00:36:17.396Z,34.30
2023-11-18T00:38:43.845Z,31.65
2023-11-18T00:41:10.413Z,33.40
2023-11-18T00:43:37.323Z,32.35
2023-11-18T00:46:05.084Z,31.92
2023-11-18T00:48:31.747Z,29.38
2023-11-18T00:50:58.577Z,35.50
2023-11-18T00:53:25.581Z,37.80
2023-11-18T00:55:52.119Z,30.60
2023-11-18T00:58:18.614Z,30.85
2023-11-18T01:00:45.326Z,29.73
2023-11-18T01:03:11.886Z,35.90
2023-11-18T01:05:38.521Z,33.83
2023-11-18T01:08:06.395Z,32.95
2023-11-18T01:10:32.960Z,28.27
2023-11-18T01:12:59.600Z,34.67
2023-11-18T01:15:26.091Z,29.10
2023-11-18T01:17:55.576Z,28.05
2023-11-18T01:20:23.503Z,37.95
2023-11-18T01:22:50.589Z,37.47
2023-11-18T01:25:20.300Z,31.55
2023-11-18T01:27:50.139Z,36.28
2023-11-18T01:30:16.817Z,31.52
2023-11-18T01:32:47.440Z,40.25
2023-11-18T01:35:14.147Z,35.15
2023-11-18T01:37:50.545Z,32.28
2023-11-18T01:40:17.177Z,35.20
2023-11-18T01:42:44.906Z,39.35
2023-11-18T01:45:13.220Z,38.25
2023-11-18T01:47:43.316Z,41.53
2023-11-18T01:50:12.785Z,39.97
2023-11-18T01:52:40.402Z,33.28
2023-11-18T01:55:08.141Z,35.15
2023-11-18T01:57:35.487Z,32.58
2023-11-18T02:00:07.125Z,38.80
2023-11-18T02:02:34.445Z,36.40
2023-11-18T02:05:04.126Z,33.10
2023-11-18T02:07:30.765Z,35.83
2023-11-18T02:09:57.274Z,36.47
2023-11-18T02:12:44.154Z,39.67
2023-11-18T02:15:13.976Z,33.22
2023-11-18T02:17:43.793Z,34.13
2023-11-18T02:20:16.897Z,31.33
2023-11-18T02:22:49.494Z,36.75
2023-11-18T02:25:20.419Z,32.15
2023-11-18T02:27:47.112Z,34.80
2023-11-18T02:30:17.988Z,37.53
2023-11-18T02:32:51.359Z,30.88
2023-11-18T02:35:17.944Z,37.78
2023-11-18T02:37:46.317Z,34.90
2023-11-18T02:40:17.523Z,34.80
2023-11-18T02:42:44.986Z,32.33
2023-11-18T02:45:13.750Z,35.83
2023-11-18T02:47:40.466Z,38.53
2023-11-18T02:50:11.952Z,36.25
2023-11-18T02:52:39.093Z,33.53
2023-11-18T02:55:07.821Z,34.13
2023-11-18T02:57:34.407Z,34.47
2023-11-18T03:00:05.519Z,32.95
2023-11-18T03:02:32.433Z,31.25
2023-11-18T03:04:59.471Z,29.08
2023-11-18T03:07:28.104Z,36.95
2023-11-18T03:09:58.325Z,36.00
2023-11-18T03:12:28.803Z,29.27
2023-11-18T03:14:55.825Z,34.92
2023-11-18T03:17:22.387Z,35.67
2023-11-18T03:19:49.219Z,31.23
2023-11-18T03:22:15.707Z,34.13
2023-11-18T03:24:45.312Z,29.73
2023-11-18T03:27:11.833Z,33.47
2023-11-18T03:29:38.310Z,35.47
2023-11-18T03:32:06.558Z,38.80
2023-11-18T03:34:33.490Z,38.03
2023-11-18T03:37:00.320Z,31.52
2023-11-18T03:39:28.387Z,39.00
2023-11-18T03:41:58.498Z,36.60
2023-11-18T03:44:28.012Z,35.05
2023-11-18T03:46:57.610Z,38.00
2023-11-18T03:49:24.117Z,35.55
2023-11-18T03:51:50.564Z,38.40
2023-11-18T03:54:17.067Z,38.72
2023-11-18T03:56:43.914Z,37.40
2023-11-18T03:59:10.658Z,40.88
2023-11-18T04:01:37.523Z,38.80
2023-11-18T04:04:05.453Z,31.17
2023-11-18T04:06:32.128Z,35.13
2023-11-18T04:08:58.836Z,36.67
2023-11-18T04:11:25.324Z,40.28
2023-11-18T04:13:52.006Z,36.15
2023-11-18T04:16:18.539Z,32.85
2023-11-18T04:18:47.950Z,34.10
2023-11-18T04:21:14.641Z,36.03
2023-11-18T04:23:42.237Z,36.55
2023-11-18T04:26:09.213Z,30.58
2023-11-18T04:28:36.077Z,44.70
2023-11-18T04:31:04.122Z,29.08
2023-11-18T04:33:30.666Z,28.92
2023-11-18T04:36:00.139Z,28.33
2023-11-18T04:38:27.348Z,36.03
2023-11-18T04:40:55.409Z,35.85
2023-11-18T04:43:31.106Z,29.85
2023-11-18T04:46:06.746Z,35.42
2023-11-18T04:48:34.674Z,31.42
2023-11-18T04:51:02.046Z,27.08
2023-11-18T04:53:29.540Z,30.50
2023-11-18T04:55:56.062Z,30.38
2023-11-18T04:58:24.780Z,25.13
2023-11-18T05:00:51.780Z,26.17
2023-11-18T05:03:21.221Z,29.83
2023-11-18T05:05:47.807Z,35.13
2023-11-18T05:08:21.011Z,30.27
2023-11-18T05:10:53.592Z,28.42
2023-11-18T05:13:20.374Z,36.08
2023-11-18T05:15:50.068Z,31.17
2023-11-18T05:18:17.129Z,32.03
2023-11-18T05:20:44.158Z,29.55
2023-11-18T05:23:13.739Z,32.50
2023-11-18T05:25:47.088Z,28.23
2023-11-18T05:28:13.711Z,30.27
2023-11-18T05:30:42.474Z,29.67
2023-11-18T05:33:10.404Z,27.73
2023-11-18T05:35:37.018Z,26.58
2023-11-18T05:38:04.492Z,27.65
2023-11-18T05:40:31.263Z,22.77
2023-11-18T05:42:59.846Z,29.65
2023-11-18T05:45:29.716Z,27.45
2023-11-18T05:47:57.326Z,23.52
2023-11-18T05:50:25.787Z,31.05
2023-11-18T05:52:53.774Z,23.00
2023-11-18T05:55:20.258Z,25.98
2023-11-18T05:57:46.736Z,20.60
2023-11-18T06:00:25.287Z,29.98
2023-11-18T06:02:57.401Z,20.15
2023-11-18T06:05:27.452Z,27.65
2023-11-18T06:07:54.776Z,22.63
2023-11-18T06:10:21.715Z,20.45
2023-11-18T06:12:48.286Z,25.88
2023-11-18T06:15:15.718Z,22.65
2023-11-18T06:17:45.198Z,28.30
2023-11-18T06:20:12.003Z,22.98
2023-11-18T06:22:38.478Z,20.58
2023-11-18T06:25:08.838Z,20.80
2023-11-18T06:27:38.504Z,18.40
2023-11-18T06:30:05.161Z,24.25
2023-11-18T06:32:32.304Z,21.60
2023-11-18T06:34:59.589Z,21.45
2023-11-18T06:37:26.073Z,19.33
2023-11-18T06:39:53.767Z,18.77
2023-11-18T06:42:20.280Z,17.35
2023-11-18T06:44:50.191Z,22.80
2023-11-18T06:47:19.810Z,19.80
2023-11-18T06:49:48.610Z,21.48
2023-11-18T06:52:15.086Z,17.23
2023-11-18T06:54:45.158Z,17.00
2023-11-18T06:57:12.273Z,19.50
2023-11-18T06:59:39.585Z,20.48
2023-11-18T07:02:07.747Z,19.65
2023-11-18T07:04:34.481Z,21.42
2023-11-18T07:07:00.985Z,24.20
2023-11-18T07:09:27.442Z,21.73
2023-11-18T07:11:54.132Z,26.02
2023-11-18T07:14:20.771Z,27.15
2023-11-18T07:16:52.830Z,15.52
2023-11-18T07:19:24.130Z,20.77
2023-11-18T07:21:51.226Z,23.10
2023-11-18T07:24:18.380Z,17.98
2023-11-18T07:26:46.426Z,22.75
2023-11-18T07:29:15.061Z,16.63
2023-11-18T07:31:41.745Z,16.55
2023-11-18T07:34:08.405Z,21.38
2023-11-18T07:36:38.284Z,17.20
2023-11-18T07:39:05.063Z,15.05
2023-11-18T07:41:34.793Z,14.90
2023-11-18T07:44:03.465Z,16.30
2023-11-18T07:46:32.359Z,16.10
2023-11-18T07:48:59.568Z,11.05
2023-11-18T07:51:26.192Z,10.70
2023-11-18T07:53:54.003Z,14.93
2023-11-18T07:56:23.852Z,11.73
2023-11-18T07:58:51.876Z,17.88
2023-11-18T08:01:18.755Z,15.98
2023-11-18T08:03:45.472Z,15.00
2023-11-18T08:06:13.218Z,17.88
2023-11-18T08:08:40.000Z,21.60
2023-11-18T08:11:06.891Z,14.38
2023-11-18T08:13:36.764Z,21.40
2023-11-18T08:16:03.383Z,16.63
2023-11-18T08:18:32.351Z,16.85
2023-11-18T08:21:01.341Z,16.27
2023-11-18T08:23:29.493Z,12.70
2023-11-18T08:25:56.580Z,14.95
2023-11-18T08:28:23.258Z,10.32
2023-11-18T08:30:52.316Z,17.02
2023-11-18T08:33:19.458Z,14.23
2023-11-18T08:35:47.276Z,15.55
2023-11-18T08:38:13.958Z,9.40
2023-11-18T08:40:40.828Z,27.88
2023-11-18T08:43:09.262Z,21.77
2023-11-18T08:45:35.911Z,17.95
2023-11-18T08:48:05.638Z,15.30
2023-11-18T08:50:32.526Z,11.50
2023-11-18T08:52:59.692Z,16.20
2023-11-18T08:55:45.827Z,17.13
2023-11-18T08:58:23.528Z,21.88
2023-11-18T09:00:55.181Z,11.85
2023-11-18T09:03:26.313Z,14.13
2023-11-18T09:05:59.564Z,12.65
2023-11-18T09:08:30.917Z,17.95
2023-11-18T09:10:58.077Z,15.90
2023-11-18T09:13:29.993Z,13.35
2023-11-18T09:16:01.422Z,10.82
2023-11-18T09:18:37.280Z,14.20
2023-11-18T09:21:13.519Z,13.63
2023-11-18T09:23:41.712Z,18.02
2023-11-18T09:26:11.614Z,15.05
2023-11-18T09:28:38.837Z,12.13
2023-11-18T09:31:12.795Z,12.15
2023-11-18T09:33:41.286Z,14.95
2023-11-18T09:36:13.598Z,15.13
2023-11-18T09:38:50.917Z,20.63
2023-11-18T09:41:17.548Z,10.30
2023-11-18T09:43:48.784Z,17.58
2023-11-18T09:46:25.307Z,14.20
2023-11-18T09:49:01.039Z,16.77
2023-11-18T09:51:33.341Z,13.20
2023-11-18T09:54:08.252Z,18.83
2023-11-18T09:56:47.595Z,17.98
2023-11-18T09:59:20.893Z,11.18
2023-11-18T10:01:52.505Z,35.47
2023-11-18T10:04:19.718Z,17.33
2023-11-18T10:06:47.869Z,20.67
2023-11-18T10:09:18.648Z,17.25
2023-11-18T10:11:48.705Z,12.40
2023-11-18T10:14:16.996Z,13.48
2023-11-18T10:16:48.121Z,12.93
2023-11-18T10:19:15.594Z,15.15
2023-11-18T10:21:42.342Z,18.83
2023-11-18T10:24:15.679Z,11.77
2023-11-18T10:26:43.764Z,14.80
2023-11-18T10:29:10.423Z,17.13
2023-11-18T10:31:38.541Z,18.80
2023-11-18T10:34:05.344Z,18.58
2023-11-18T10:36:34.361Z,13.05
2023-11-18T10:39:02.356Z,14.02
2023-11-18T10:41:32.183Z,19.88
2023-11-18T10:44:09.034Z,15.27
2023-11-18T10:46:36.435Z,18.42
2023-11-18T10:49:03.550Z,16.83
2023-11-18T10:51:32.094Z,14.23
2023-11-18T10:54:05.173Z,14.10
2023-11-18T10:56:33.759Z,16.65
2023-11-18T10:59:06.876Z,20.23
2023-11-18T11:01:34.935Z,12.82
2023-11-18T11:04:05.741Z,11.80
2023-11-18T11:06:33.483Z,16.05
2023-11-18T11:09:00.299Z,11.55
2023-11-18T11:11:29.428Z,18.08
2023-11-18T11:14:01.813Z,15.35
2023-11-18T11:16:55.466Z,15.45
2023-11-18T11:19:50.019Z,15.75
2023-11-18T11:22:22.268Z,18.52
2023-11-18T11:24:51.970Z,17.33
2023-11-18T11:27:30.170Z,15.57
2023-11-18T11:30:00.642Z,20.30
2023-11-18T11:32:31.707Z,16.98
2023-11-18T11:35:09.542Z,18.25
2023-11-18T11:37:36.620Z,15.00
2023-11-18T11:40:08.851Z,9.30
2023-11-18T11:42:35.872Z,13.55
2023-11-18T11:45:03.234Z,9.48
2023-11-18T11:47:37.611Z,9.57
2023-11-18T11:50:14.206Z,11.45
2023-11-18T11:52:50.144Z,15.85
2023-11-18T11:55:20.592Z,6.97
2023-11-18T11:57:59.932Z,10.52
2023-11-18T12:00:35.493Z,8.32
2023-11-18T12:03:16.092Z,7.70
2023-11-18T12:05:47.430Z,7.65
2023-11-18T12:08:14.557Z,10.68
2023-11-18T12:10:41.769Z,7.97
2023-11-18T12:13:19.887Z,8.20
2023-11-18T12:16:05.311Z,6.22
2023-11-18T12:18:37.792Z,9.50
2023-11-18T12:21:05.368Z,6.95
2023-11-18T12:23:35.496Z,9.50
2023-11-18T12:26:04.502Z,7.25
2023-11-18T12:28:35.662Z,7.85
2023-11-18T12:31:14.705Z,4.53
2023-11-18T12:33:57.965Z,6.93
2023-11-18T12:36:44.840Z,6.53
2023-11-18T12:39:44.734Z,6.38
2023-11-18T12:42:24.010Z,4.88
2023-11-18T12:45:00.712Z,5.65
2023-11-18T12:47:31.191Z,4.00
2023-11-18T12:49:57.798Z,5.28
2023-11-18T12:52:24.663Z,7.35
2023-11-18T12:54:59.762Z,3.65
2023-11-18T12:57:32.894Z,4.38
2023-11-18T13:00:01.663Z,3.65
2023-11-18T13:02:28.340Z,3.95
2023-11-18T13:04:54.943Z,3.80
2023-11-18T13:07:26.309Z,3.42
2023-11-18T13:09:56.334Z,4.85
2023-11-18T13:12:25.189Z,5.25
2023-11-18T13:14:52.735Z,2.80
2023-11-18T13:17:19.721Z,3.60
2023-11-18T13:19:47.227Z,4.22
2023-11-18T13:22:14.913Z,4.65
2023-11-18T13:24:47.592Z,4.85
2023-11-18T13:27:15.105Z,2.47
2023-11-18T13:29:46.499Z,5.93
2023-11-18T13:32:16.531Z,2.03
2023-11-18T13:34:45.212Z,3.17
2023-11-18T13:37:14.251Z,6.53
2023-11-18T13:39:42.805Z,3.42
2023-11-18T13:42:40.332Z,3.15
2023-11-18T13:45:12.834Z,3.08
2023-11-18T13:47:39.549Z,3.47
2023-11-18T13:50:10.121Z,4.80
2023-11-18T13:52:37.865Z,4.13
2023-11-18T13:55:07.782Z,2.42
2023-11-18T13:57:34.347Z,4.78
2023-11-18T14:00:07.813Z,3.00
2023-11-18T14:02:38.374Z,2.22
2023-11-18T14:05:06.793Z,2.35
2023-11-18T14:07:39.286Z,1.73
2023-11-18T14:10:13.443Z,3.05
2023-11-18T14:12:40.521Z,2.55
2023-11-18T14:15:15.164Z,4.43
2023-11-18T14:17:41.803Z,3.72
2023-11-18T14:20:13.649Z,2.08
2023-11-18T14:25:25.351Z,2.65
2023-11-18T14:27:52.575Z,1.83
2023-11-18T14:30:28.196Z,2.45
2023-11-18T14:32:54.907Z,2.42
2023-11-18T14:35:26.812Z,3.33
2023-11-18T14:37:55.027Z,1.88
2023-11-18T14:40:25.043Z,2.20
2023-11-18T14:42:51.809Z,1.50
2023-11-18T14:45:22.830Z,1.42
2023-11-18T14:47:57.377Z,6.05
2023-11-18T14:50:35.901Z,14.48
2023-11-18T14:53:02.616Z,3.80
2023-11-18T14:55:29.577Z,1.55
2023-11-18T14:57:58.982Z,2.10
2023-11-18T15:00:29.223Z,1.70
2023-11-18T15:03:00.371Z,1.75
2023-11-18T15:05:28.506Z,3.30
2023-11-18T15:07:56.342Z,1.40
2023-11-18T15:10:23.697Z,1.50
2023-11-18T15:13:03.166Z,1.80
2023-11-18T15:15:33.766Z,2.47
2023-11-18T15:18:01.488Z,2.03
2023-11-18T15:20:28.077Z,2.78
2023-11-18T15:22:55.312Z,2.10
2023-11-18T15:25:21.928Z,1.70
2023-11-18T15:27:48.822Z,1.95
2023-11-18T15:30:15.548Z,4.35
2023-11-18T15:32:42.852Z,2.78
2023-11-18T15:35:09.907Z,2.10
2023-11-18T15:37:42.251Z,2.00
2023-11-18T15:40:12.307Z,2.05
2023-11-18T15:42:39.417Z,1.90
2023-11-18T15:45:09.530Z,3.72
2023-11-18T15:47:37.253Z,1.95
2023-11-18T15:50:04.430Z,16.45
2023-11-18T15:52:30.878Z,1.98
2023-11-18T15:54:57.391Z,2.00
2023-11-18T15:57:23.840Z,2.28
2023-11-18T15:59:51.663Z,1.90
2023-11-18T16:02:18.200Z,1.60
2023-11-18T16:04:45.230Z,2.10
2023-11-18T16:07:13.393Z,2.20
2023-11-18T16:09:39.876Z,1.80
2023-11-18T16:12:08.342Z,1.73
2023-11-18T16:14:34.910Z,1.80
2023-11-18T16:17:01.673Z,2.10
2023-11-18T16:19:28.252Z,2.15
2023-11-18T16:21:54.712Z,1.70
2023-11-18T16:24:21.193Z,2.60
2023-11-18T16:26:48.911Z,2.90
2023-11-18T16:29:15.744Z,2.60
2023-11-18T16:31:42.354Z,2.22
2023-11-18T16:34:09.938Z,2.70
2023-11-18T16:36:40.871Z,2.75
2023-11-18T16:39:07.571Z,2.60
2023-11-18T16:41:43.426Z,3.20
2023-11-18T16:44:12.661Z,3.15
2023-11-18T16:46:41.040Z,3.67
2023-11-18T16:49:15.632Z,4.85
2023-11-18T16:51:45.820Z,3.75
2023-11-18T16:54:13.292Z,3.75
2023-11-18T16:56:48.809Z,4.15
2023-11-18T16:59:19.507Z,4.60
2023-11-18T17:01:49.393Z,4.63
2023-11-18T17:04:17.452Z,5.35
2023-11-18T17:06:45.830Z,4.82
2023-11-18T17:09:13.025Z,6.20
2023-11-18T17:11:39.470Z,5.88
2023-11-18T17:14:06.507Z,5.57
2023-11-18T17:16:33.170Z,6.43
2023-11-18T17:19:03.113Z,6.90
2023-11-18T17:21:29.772Z,7.57
2023-11-18T17:23:56.230Z,7.65
2023-11-18T17:26:25.197Z,7.20
2023-11-18T17:28:51.728Z,7.78
2023-11-18T17:31:18.549Z,8.60
2023-11-18T17:33:45.208Z,7.63
2023-11-18T17:36:14.451Z,8.02
2023-11-18T17:38:41.063Z,7.68
2023-11-18T17:41:09.098Z,8.80
2023-11-18T17:43:35.561Z,9.38
2023-11-18T17:46:02.212Z,9.30
2023-11-18T17:48:29.870Z,10.55
2023-11-18T17:50:59.656Z,9.05
2023-11-18T17:53:27.521Z,9.85
2023-11-18T17:55:54.279Z,9.93
2023-11-18T17:58:20.952Z,10.40
2023-11-18T18:00:47.366Z,11.38
2023-11-18T18:03:13.911Z,10.98
2023-11-18T18:05:54.381Z,11.73
2023-11-18T18:08:20.959Z,11.48
2023-11-18T18:10:47.536Z,11.55
2023-11-18T18:13:16.575Z,12.60
2023-11-18T18:15:43.168Z,12.60
2023-11-18T18:18:10.487Z,13.20
2023-11-18T18:20:38.214Z,14.85
2023-11-18T18:23:05.052Z,13.57
2023-11-18T18:25:31.565Z,13.05
2023-11-18T18:27:58.011Z,13.25
2023-11-18T18:30:24.708Z,13.85
2023-11-18T18:32:51.857Z,13.27
2023-11-18T18:35:18.799Z,13.70
2023-11-18T18:37:50.129Z,14.38
2023-11-18T18:40:16.861Z,15.40
2023-11-18T18:42:43.358Z,14.55
2023-11-18T18:45:12.737Z,15.50
2023-11-18T18:47:39.369Z,16.38
2023-11-18T18:50:06.767Z,15.40
2023-11-18T18:52:33.625Z,16.25
2023-11-18T18:55:00.239Z,15.15
2023-11-18T18:57:27.497Z,16.67
2023-11-18T18:59:53.998Z,15.82
2023-11-18T19:02:23.744Z,16.52
2023-11-18T19:04:50.409Z,16.80
2023-11-18T19:07:19.442Z,15.77
2023-11-18T19:09:50.095Z,15.82
2023-11-18T19:12:19.479Z,16.98
2023-11-18T19:14:46.161Z,16.33
2023-11-18T19:17:14.762Z,16.30
2023-11-18T19:19:41.612Z,18.45
2023-11-18T19:22:10.756Z,18.90
2023-11-18T19:24:39.116Z,21.92
2023-11-18T19:27:10.738Z,19.20
2023-11-18T19:29:37.332Z,21.17
2023-11-18T19:32:03.901Z,21.30
2023-11-18T19:34:30.448Z,21.85
2023-11-18T19:36:59.267Z,24.58
2023-11-18T19:39:25.708Z,23.48
2023-11-18T19:41:54.534Z,25.17
2023-11-18T19:44:24.349Z,24.17
2023-11-18T19:46:55.659Z,25.30
2023-11-18T19:49:22.317Z,23.95
2023-11-18T19:51:57.312Z,23.63
2023-11-18T19:54:26.810Z,23.35
2023-11-18T19:56:55.804Z,23.67
2023-11-18T19:59:24.746Z,24.40
2023-11-18T20:01:55.797Z,22.60
2023-11-18T20:04:24.621Z,22.65
2023-11-18T20:06:51.074Z,22.48
2023-11-18T20:09:22.301Z,22.15
2023-11-18T20:11:49.985Z,22.08
2023-11-18T20:14:16.562Z,21.60
2023-11-18T20:16:43.144Z,24.25
2023-11-18T20:19:10.698Z,21.77
2023-11-18T20:21:38.138Z,25.70
2023-11-18T20:24:10.436Z,20.52
2023-11-18T20:26:40.172Z,19.80
2023-11-18T20:29:06.656Z,20.55
2023-11-18T20:31:36.643Z,19.63
2023-11-18T20:34:06.965Z,19.80
2023-11-18T20:36:33.501Z,20.10
2023-11-18T20:39:00.189Z,20.50
2023-11-18T20:41:28.463Z,18.48
2023-11-18T20:43:54.998Z,17.15
2023-11-18T20:46:21.601Z,18.42
2023-11-18T20:48:48.149Z,17.70
2023-11-18T20:51:17.996Z,17.95
2023-11-18T20:53:45.437Z,18.38
2023-11-18T20:56:12.833Z,19.55
2023-11-18T20:58:41.319Z,18.27
2023-11-18T21:01:13.665Z,18.33
2023-11-18T21:03:40.381Z,18.13
2023-11-18T21:06:07.817Z,19.58
2023-11-18T21:08:34.658Z,17.75
2023-11-18T21:11:08.427Z,18.38
2023-11-18T21:13:39.576Z,18.58
2023-11-18T21:16:10.560Z,17.20
2023-11-18T21:18:37.026Z,17.83
2023-11-18T21:21:06.542Z,18.30
2023-11-18T21:23:33.194Z,18.48
2023-11-18T21:25:59.794Z,17.65
2023-11-18T21:28:26.295Z,19.30
2023-11-18T21:30:53.537Z,18.23
2023-11-18T21:33:20.260Z,20.27
2023-11-18T21:35:46.957Z,20.17
2023-11-18T21:38:13.603Z,18.67
2023-11-18T21:40:40.425Z,19.50
2023-11-18T21:43:06.900Z,19.30
2023-11-18T21:45:33.466Z,17.63
2023-11-18T21:48:02.172Z,15.65
2023-11-18T21:50:28.771Z,15.38
2023-11-18T21:52:55.400Z,15.32
2023-11-18T21:55:22.160Z,14.43
2023-11-18T21:57:48.927Z,14.48
2023-11-18T22:00:19.063Z,14.52
2023-11-18T22:02:46.653Z,13.90
2023-11-18T22:05:16.099Z,15.85
2023-11-18T22:07:46.530Z,14.68
2023-11-18T22:10:18.921Z,15.18
2023-11-18T22:12:46.026Z,15.02
2023-11-18T22:15:17.379Z,15.68
2023-11-18T22:17:44.632Z,15.48
2023-11-18T22:20:13.948Z,15.00
2023-11-18T22:22:40.775Z,14.70
2023-11-18T22:25:10.277Z,13.90
2023-11-18T22:27:41.988Z,14.48
2023-11-18T22:30:09.503Z,14.43
2023-11-18T22:32:39.031Z,14.45
2023-11-18T22:35:07.994Z,13.43
2023-11-18T22:37:35.540Z,10.80
2023-11-18T22:40:02.738Z,10.68
2023-11-18T22:42:34.145Z,10.65
2023-11-18T22:45:00.667Z,11.30
2023-11-18T22:47:27.199Z,12.02
2023-11-18T22:49:53.707Z,14.00
2023-11-18T22:52:20.212Z,13.60
2023-11-18T22:54:47.222Z,12.82
2023-11-18T22:57:13.734Z,10.82
2023-11-18T22:59:40.271Z,12.57
2023-11-18T23:02:06.954Z,12.52
2023-11-18T23:04:33.555Z,13.50
2023-11-18T23:07:00.210Z,12.55
2023-11-18T23:09:27.721Z,11.35
2023-11-18T23:11:57.092Z,9.15
2023-11-18T23:14:23.594Z,12.63
2023-11-18T23:16:54.533Z,11.60
2023-11-18T23:19:21.565Z,12.80
2023-11-18T23:21:48.531Z,9.10
2023-11-18T23:24:15.054Z,11.95
2023-11-18T23:26:42.320Z,9.43
2023-11-18T23:29:08.833Z,10.73
2023-11-18T23:31:35.373Z,7.60
2023-11-18T23:34:05.121Z,10.75
2023-11-18T23:36:31.801Z,11.25
2023-11-18T23:41:29.860Z,6.45
2023-11-18T23:43:56.352Z,5.53
2023-11-18T23:46:22.924Z,6.63
2023-11-18T23:48:49.473Z,9.55
2023-11-18T23:51:16.221Z,9.45
2023-11-18T23:53:43.072Z,8.00
2023-11-18T23:56:09.510Z,15.65
2023-11-18T23:58:36.601Z,9.02
